Latest Weather Observations for Leonora Airport

IDW60801

Issued at 12:34 pm WST Thursday 19 January 2017 (issued every 30 minutes, with the page automatically refreshed every 10 minutes)

About weather observations | Map of weather stations | Latest weather observations for WA | Other Formats
Station Details ID: 012241 Name: LEONORA AERO Lat: -28.88 Lon: 121.32 Height: 370.0 m
Data from the previous 72 hours. | See also: Recent months at Leonora Airport
Date/Time
WST
Temp
°C
App
Temp
°C
Dew
Point
°C
Rel
Hum
%
Delta-T
°C
Wind Press
QNH
hPa
Press
MSL
hPa
Rain since
9am
mm
Dir  Spd
km/h
Gust
km/h
Spd
kts
Gust
kts
19/12:30pm 35.0 33.3 14.8 29 12.8 SW 17 24 9 13 1004.7 1001.9 0.0
19/12:00pm 34.4 33.5 14.8 30 12.4 SSW 13 37 7 20 1005.2 1002.5 0.0
19/11:30am 33.3 33.3 15.3 34 11.4 S 9 20 5 11 1005.7 1003.0 0.0
19/11:00am 31.9 31.2 15.4 37 10.4 SSE 13 20 7 11 1006.2 1003.5 0.0
19/10:30am 31.4 31.2 15.8 39 9.8 SW 11 20 6 11 1006.5 1003.8 0.0
19/10:00am 29.8 30.4 15.9 43 8.8 SW 7 15 4 8 1006.9 1004.1 0.0
19/09:30am 28.8 29.8 16.4 47 7.8 NNW 6 13 3 7 1007.1 1004.3 0.0
19/09:00am 27.3 28.5 16.0 50 7.1 NNW 4 13 2 7 1007.4 1004.6 0.0
19/08:30am 26.1 26.8 16.1 54 6.2 NNW 7 11 4 6 1007.6 1004.9 0.0
19/08:00am 24.9 25.1 15.8 57 5.6 NNE 9 15 5 8 1007.4 1004.6 0.0
19/07:30am 23.9 23.8 15.9 61 4.9 NNE 11 17 6 9 1007.2 1004.4 0.0
19/07:00am 23.0 22.8 15.8 64 4.4 NE 11 15 6 8 1007.4 1004.6 0.0
19/06:30am 22.5 22.1 16.1 67 3.9 NE 13 17 7 9 1007.6 1004.9 0.0
19/06:00am 21.9 21.1 16.0 69 3.6 ENE 15 20 8 11 1007.2 1004.4 0.0
19/05:30am 21.7 21.6 16.0 70 3.5 ENE 11 15 6 8 1007.2 1004.4 0.0
19/05:00am 21.6 21.1 15.9 70 3.5 ENE 13 17 7 9 1006.5 1003.8 0.0
19/04:30am 21.8 21.3 15.9 69 3.6 E 13 17 7 9 1006.9 1004.1 0.0
19/04:00am 22.2 22.4 15.8 67 3.9 ENE 9 13 5 7 1006.6 1003.9 0.0
19/03:30am 22.5 22.7 15.8 66 4.1 E 9 13 5 7 1006.7 1004.0 0.0
19/03:00am 22.8 22.7 15.9 65 4.2 ENE 11 19 6 10 1007.0 1004.2 0.0
19/02:30am 23.1 21.8 15.9 64 4.4 ENE 17 20 9 11 1007.1 1004.3 0.0
19/02:00am 23.2 22.3 15.8 63 4.5 E 15 19 8 10 1007.5 1004.7 0.0
19/01:30am 23.4 22.8 15.7 62 4.7 E 13 17 7 9 1007.7 1005.0 0.0
19/01:00am 23.5 22.8 15.5 60 4.9 E 13 17 7 9 1008.0 1005.3 0.0
19/12:30am 23.7 22.7 15.7 61 4.9 ENE 15 19 8 10 1008.3 1005.6 0.0
19/12:00am 23.9 22.4 15.4 59 5.2 ENE 17 24 9 13 1008.4 1005.7 0.0
 
Date/Time
WST
Temp
°C
App
Temp
°C
Dew
Point
°C
Rel
Hum
%
Delta-T
°C
Wind Press
QNH
hPa
Press
MSL
hPa
Rain since
9am
mm
Dir  Spd
km/h
Gust
km/h
Spd
kts
Gust
kts
18/11:30pm 24.1 22.1 15.6 59 5.2 E 20 26 11 14 1008.5 1005.8 0.0
18/11:00pm 24.4 22.6 15.6 58 5.4 ENE 19 24 10 13 1009.0 1006.3 0.0
18/10:30pm 24.6 22.6 15.5 57 5.6 E 20 28 11 15 1009.0 1006.3 0.0
18/10:00pm 25.1 22.4 15.7 56 5.8 ENE 24 35 13 19 1009.0 1006.3 0.0
18/09:30pm 25.5 23.7 15.5 54 6.2 ENE 19 30 10 16 1009.5 1006.8 0.0
18/09:00pm 25.6 23.2 15.3 53 6.3 ENE 22 28 12 15 1009.6 1006.9 0.0
18/08:30pm 25.9 23.8 15.3 52 6.5 ENE 20 26 11 14 1009.4 1006.7 0.0
18/08:00pm 26.3 24.1 15.0 49 6.9 ENE 20 28 11 15 1009.0 1006.3 0.0
18/07:30pm 26.8 24.8 14.9 48 7.3 E 19 26 10 14 1008.5 1005.8 0.0
18/07:00pm 27.3 25.0 14.7 46 7.7 ENE 20 28 11 15 1008.2 1005.5 0.0
18/06:30pm 28.2 26.4 14.4 42 8.4 E 17 24 9 13 1007.9 1005.2 0.0
18/06:00pm 29.0 27.2 14.4 41 9.0 E 17 28 9 15 1007.8 1005.1 0.0
18/05:30pm 29.0 26.2 14.4 41 8.9 E 22 30 12 16 1007.6 1004.9 0.0
18/05:00pm 29.0 26.7 14.0 39 9.2 ENE 19 24 10 13 1007.6 1004.9 0.0
18/04:30pm 29.2 26.7 14.2 40 9.2 ENE 20 30 11 16 1007.7 1005.0 0.0
18/04:00pm 29.7 27.3 14.3 39 9.5 ENE 20 28 11 15 1008.0 1005.3 0.0
18/03:30pm 28.7 26.7 13.8 40 9.0 ENE 17 26 9 14 1008.6 1005.9 0.0
18/03:00pm 28.6 26.5 13.7 40 9.0 E 17 28 9 15 1009.1 1006.4 0.0
18/02:30pm 28.0 26.0 13.9 42 8.5 E 17 26 9 14 1009.6 1006.9 0.0
18/02:00pm 28.2 25.8 13.7 41 8.8 E 19 32 10 17 1010.2 1007.5 0.0
18/01:30pm 26.1 24.6 13.2 44 7.7 ESE 13 20 7 11 1010.7 1008.0 0.0
18/01:00pm 25.6 23.2 13.8 48 7.1 E 19 32 10 17 1011.2 1008.5 0.0
18/12:30pm 24.9 22.4 13.5 49 6.8 E 19 33 10 18 1011.5 1008.8 0.0
18/12:00pm 24.4 21.6 12.7 48 6.9 E 19 32 10 17 1012.0 1009.3 0.0
18/11:30am 23.2 20.0 13.1 53 5.9 E 22 30 12 16 1012.7 1010.0 0.0
18/11:00am 22.3 19.7 13.1 56 5.4 E 19 28 10 15 1013.0 1010.3 0.0
18/10:30am 22.3 19.5 13.1 56 5.4 E 20 32 11 17 1013.3 1010.6 0.0
18/10:00am 21.1 17.8 12.8 59 4.8 E 22 32 12 17 1013.6 1010.9 0.0
18/09:30am 20.2 17.2 12.4 61 4.5 E 20 32 11 17 1014.0 1011.3 0.0
18/09:00am 19.8 16.7 12.3 62 4.3 E 20 26 11 14 1014.3 1011.6 0.0
18/08:30am 18.7 15.7 12.5 67 3.5 E 20 28 11 15 1014.8 1012.1 0.0
18/08:00am 18.5 15.1 12.5 68 3.4 E 22 28 12 15 1014.9 1012.3 0.0
18/07:30am 17.8 14.7 12.3 70 3.1 E 20 28 11 15 1014.8 1012.1 0.0
18/07:00am 17.7 14.3 12.6 72 2.9 E 22 28 12 15 1014.6 1011.9 0.0
18/06:30am 17.3 14.3 12.4 73 2.8 E 20 28 11 15 1014.8 1012.1 0.0
18/06:00am 17.2 14.8 12.7 75 2.5 ESE 17 22 9 12 1014.7 1012.0 0.0
18/05:30am 17.3 14.3 12.4 73 2.8 ESE 20 28 11 15 1014.3 1011.6 0.0
18/05:00am 17.5 13.7 12.4 72 2.9 E 24 32 13 17 1013.8 1011.1 0.0
18/04:30am 17.8 14.8 12.5 71 3.0 E 20 28 11 15 1013.4 1010.7 0.0
18/04:00am 17.9 13.7 12.4 70 3.1 E 26 33 14 18 1013.1 1010.4 0.0
18/03:30am 18.1 15.0 12.3 69 3.3 ESE 20 28 11 15 1013.0 1010.3 0.0
18/03:00am 18.3 14.5 12.5 69 3.3 E 24 30 13 16 1012.9 1010.2 0.0
18/02:30am 18.5 14.7 12.5 68 3.4 E 24 32 13 17 1012.9 1010.2 0.0
18/02:00am 18.8 15.9 12.8 68 3.4 E 20 30 11 16 1012.9 1010.2 0.0
18/01:30am 18.6 14.5 12.6 68 3.4 E 26 35 14 19 1013.0 1010.3 0.0
18/01:00am 19.2 16.2 12.5 65 3.8 E 20 30 11 16 1012.9 1010.2 0.0
18/12:30am 19.2 15.3 12.2 64 4.0 E 24 35 13 19 1013.0 1010.3 0.0
18/12:00am 19.2 14.6 12.2 64 4.0 E 28 35 15 19 1013.2 1010.5 0.0
 
Date/Time
WST
Temp
°C
App
Temp
°C
Dew
Point
°C
Rel
Hum
%
Delta-T
°C
Wind Press
QNH
hPa
Press
MSL
hPa
Rain since
9am
mm
Dir  Spd
km/h
Gust
km/h
Spd
kts
Gust
kts
17/11:30pm 19.6 16.2 12.6 64 4.0 E 22 32 12 17 1013.6 1010.9 0.0
17/11:00pm 19.6 15.4 12.4 63 4.1 E 26 39 14 21 1013.9 1011.2 0.0
17/10:30pm 19.9 15.8 12.7 63 4.1 E 26 35 14 19 1013.9 1011.2 0.0
17/10:00pm 20.3 16.1 12.5 61 4.5 E 26 39 14 21 1014.0 1011.3 0.0
17/09:30pm 20.6 15.7 12.6 60 4.6 E 30 41 16 22 1014.1 1011.4 0.0
17/09:00pm 21.1 17.8 12.8 59 4.8 E 22 35 12 19 1013.8 1011.1 0.0
17/08:30pm 21.5 18.4 13.4 60 4.7 E 22 33 12 18 1013.4 1010.7 0.0
17/08:00pm 21.6 17.6 14.0 62 4.5 ENE 28 39 15 21 1013.2 1010.5 0.0
17/07:30pm 22.2 17.5 14.3 61 4.7 ENE 32 41 17 22 1012.8 1010.1 0.0
17/07:00pm 22.8 18.8 14.1 58 5.2 ENE 28 39 15 21 1012.2 1009.5 0.0
17/06:30pm 23.5 19.8 13.9 55 5.7 ENE 26 39 14 21 1011.8 1009.1 0.0
17/06:00pm 25.9 21.8 12.7 44 7.8 ENE 26 43 14 23 1011.1 1008.4 0.0
17/05:30pm 27.4 22.3 10.6 35 9.6 E 28 37 15 20 1010.7 1008.0 0.0
17/05:00pm 28.3 23.7 10.9 34 10.1 E 26 37 14 20 1010.4 1007.7 0.0
17/04:30pm 27.4 22.7 10.6 35 9.6 E 26 39 14 21 1010.3 1007.6 0.0
17/04:00pm 27.6 22.8 10.3 34 9.9 E 26 39 14 21 1010.2 1007.5 0.0
17/03:30pm 28.0 23.4 11.1 35 9.8 E 26 41 14 22 1010.3 1007.6 0.0
17/03:00pm 27.5 23.0 11.5 37 9.3 ESE 26 41 14 22 1010.3 1007.6 0.0
17/02:30pm 27.4 23.4 11.8 38 9.1 ESE 24 33 13 18 1010.6 1007.9 0.0
17/02:00pm 27.5 23.2 11.9 38 9.1 ESE 26 39 14 21 1011.0 1008.3 0.0
17/01:30pm 26.6 22.3 11.9 40 8.6 ESE 26 37 14 20 1011.1 1008.4 0.0
17/01:00pm 26.6 22.5 12.6 42 8.3 ESE 26 41 14 22 1011.4 1008.7 0.0
17/12:30pm 27.1 23.8 12.7 41 8.5 ESE 22 35 12 19 1011.4 1008.7 0.0
17/12:00pm 24.8 21.3 12.1 45 7.4 ESE 22 41 12 22 1011.7 1009.0 0.0
17/11:30am 25.0 21.1 12.2 44 7.5 ESE 24 39 13 21 1011.7 1009.0 0.0
17/11:00am 24.7 20.9 12.3 46 7.2 SE 24 35 13 19 1011.9 1009.2 0.0
17/10:30am 24.0 19.8 12.3 48 6.8 ESE 26 41 14 22 1012.0 1009.3 0.0
17/10:00am 24.1 20.3 12.4 48 6.8 ESE 24 35 13 19 1011.6 1008.9 0.0
17/09:30am 23.7 19.8 12.0 48 6.7 ESE 24 35 13 19 1011.5 1008.8 0.0
17/09:00am 22.3 18.3 11.7 51 6.0 SE 24 35 13 19 1011.3 1008.6 1.8
17/08:30am 22.1 18.1 11.8 52 5.9 SE 24 41 13 22 1011.1 1008.4 1.8
17/08:00am 21.5 17.1 11.8 54 5.5 SE 26 39 14 21 1011.0 1008.3 1.8
17/07:30am 21.7 16.8 11.4 52 5.8 ESE 28 39 15 21 1010.9 1008.2 1.8
17/07:00am 21.2 16.6 11.2 53 5.6 ESE 26 33 14 18 1010.7 1008.0 1.8
17/06:30am 21.3 17.2 11.3 53 5.6 ESE 24 37 13 20 1010.3 1007.6 1.8
17/06:00am 21.0 16.5 11.3 54 5.5 ESE 26 35 14 19 1009.6 1006.9 1.8
17/05:30am 21.1 16.9 11.2 53 5.6 ESE 24 39 13 21 1009.4 1006.7 1.8
17/05:00am 21.3 17.6 11.6 54 5.5 ESE 22 33 12 18 1009.1 1006.4 1.8
17/04:30am 21.5 18.0 12.1 55 5.4 ESE 22 33 12 18 1008.8 1006.1 1.8
17/04:00am 22.0 18.2 12.3 54 5.6 ESE 24 33 13 18 1008.3 1005.6 1.8
17/03:30am 22.7 19.7 12.6 53 5.9 ESE 20 35 11 19 1007.6 1004.9 1.8
17/03:00am 22.8 21.5 13.8 57 5.3 SE 13 24 7 13 1007.4 1004.6 1.8
17/02:30am 23.8 21.1 13.4 52 6.1 SE 20 28 11 15 1007.2 1004.4 1.8
17/02:00am 24.3 21.2 13.5 51 6.4 SE 22 35 12 19 1007.1 1004.3 1.8
17/01:30am 24.8 22.6 14.3 52 6.3 SE 19 33 10 18 1007.0 1004.2 1.8
17/01:00am 25.2 22.8 14.3 50 6.6 SE 20 32 11 17 1006.9 1004.1 1.8
17/12:30am 25.1 23.2 15.7 56 5.8 SE 20 28 11 15 1006.3 1003.6 1.8
17/12:00am 25.0 23.8 17.5 63 4.8 SE 20 28 11 15 1006.6 1003.9 1.8
 
Date/Time
WST
Temp
°C
App
Temp
°C
Dew
Point
°C
Rel
Hum
%
Delta-T
°C
Wind Press
QNH
hPa
Press
MSL
hPa
Rain since
9am
mm
Dir  Spd
km/h
Gust
km/h
Spd
kts
Gust
kts
16/11:30pm 25.6 25.8 19.3 68 4.1 SSE 17 22 9 12 1007.0 1004.2 1.6
16/11:00pm 25.2 27.1 19.8 72 3.5 S 9 15 5 8 1007.5 1004.7 1.2
16/10:30pm 26.6 27.4 19.0 63 4.9 S 13 19 7 10 1007.4 1004.6 1.0
16/10:00pm 26.8 28.7 19.7 65 4.7 SSE 9 15 5 8 1007.4 1004.6 1.0
16/09:30pm 25.8 27.5 21.0 75 3.2 SSE 13 20 7 11 1007.4 1004.6 0.8
16/09:00pm 26.2 28.5 21.4 75 3.2 SW 11 17 6 9 1007.0 1004.2 0.6
16/08:30pm 25.7 27.7 22.2 81 2.4 WSW 15 19 8 10 1006.2 1003.5 0.6
16/08:00pm 25.8 27.7 22.1 80 2.5 WSW 15 20 8 11 1006.3 1003.6 0.6
16/07:30pm 26.4 26.0 22.3 78 2.8 W 28 43 15 23 1005.5 1002.8 0.4
16/07:00pm 28.6 28.3 21.1 64 5.1 W 24 33 13 18 1005.2 1002.5 0.2
16/06:42pm 31.3 29.4 19.3 49 8.0 WSW 28 46 15 25 1004.5 1001.7 0.2
16/06:30pm 32.1 30.5 18.3 44 9.0 WSW 24 35 13 19 1004.3 1001.5 0.2
16/06:00pm 33.4 32.0 18.0 40 10.1 SW 22 33 12 18 1003.3 1000.6 0.2
16/05:30pm 34.2 32.7 17.8 37 10.7 SSW 22 30 12 16 1002.7 1000.0 0.2
16/05:00pm 34.0 33.1 17.7 38 10.7 SSW 19 26 10 14 1002.5 999.7 0.2
16/04:30pm 33.9 33.1 18.0 39 10.4 SSW 19 28 10 15 1002.6 999.8 0.2
16/04:00pm 31.7 29.0 19.3 47 8.3 WSW 32 43 17 23 1002.9 1000.2 0.2
16/03:31pm 35.4 34.4 17.6 35 11.7 W 19 57 10 31 1002.8 1000.1 0.2
16/03:30pm 36.6 35.6 16.7 30 12.9 W 17 33 9 18 1002.8 1000.1 0.2
16/03:00pm 37.9 39.4 15.7 27 14.3 E 2 9 1 5 1002.3 999.5 0.2
16/02:30pm 37.5 39.5 17.0 30 13.4 NE 2 7 1 4 1002.6 999.8 0.2
16/02:00pm 34.4 32.0 19.2 40 10.2 W 30 52 16 28 1003.3 1000.6 0.0
16/01:54pm 35.9 36.5 18.5 36 11.6 W 13 52 7 28 1002.9 1000.2 0.0
16/01:30pm 39.1 36.8 14.2 23 15.8 N 19 24 10 13 1003.2 1000.5 0.0
16/01:00pm 38.4 37.5 14.9 25 15.0 N 13 22 7 12 1003.5 1000.8 0.0

Other Formats:

Comma delimited format used in spreadsheet applications
http://www.bom.gov.au/fwo/IDW60801/IDW60801.94450.axf

JavaScript Object Notation format (JSON) in row-major order
http://www.bom.gov.au/fwo/IDW60801/IDW60801.94450.json